Time;durP1;ratioP1;P1;durP2;ratioP2;P2;SDS_P1;SDS_P2;PMS_P1;PMS_P2;Temp;Humidity;BMP_temperature;BMP_pressure;BME280_temperature;BME280_humidity;BME280_pressure;Samples;Min_cycle;Max_cycle;Signal;HPM_P1;HPM_P2
2022/12/15 00:40:10;;;;;;;30.50;19.38;;;8.10;90.80;;;;;;6340005;22;20052;-81
2022/12/15 00:42:35;;;;;;;29.33;20.30;;;8.20;90.80;;;;;;6338608;22;20001;-81
2022/12/15 00:45:01;;;;;;;30.75;19.00;;;8.10;90.80;;;;;;6339481;22;20002;-81
2022/12/15 00:47:27;;;;;;;28.08;18.90;;;8.10;90.70;;;;;;6339834;22;20510;-81
2022/12/15 01:20:14;;;;;;;24.98;17.02;;;8.00;91.00;;;;;;6338471;22;20109;-80
2022/12/15 01:22:40;;;;;;;27.23;18.88;;;8.00;90.70;;;;;;6338883;22;20030;-80
2022/12/15 01:25:07;;;;;;;26.85;17.63;;;8.00;90.90;;;;;;6339047;22;20002;-80
2022/12/15 01:27:33;;;;;;;26.23;17.55;;;8.10;90.90;;;;;;6339083;22;20027;-80
2022/12/15 01:29:59;;;;;;;30.58;19.13;;;8.10;90.80;;;;;;6338319;22;20056;-80
2022/12/15 01:32:26;;;;;;;29.15;17.83;;;8.10;90.80;;;;;;6338056;22;20006;-80
2022/12/15 01:34:52;;;;;;;26.27;16.60;;;8.10;90.80;;;;;;6338085;22;20081;-79
2022/12/15 01:37:18;;;;;;;28.10;18.48;;;8.10;90.70;;;;;;6338299;22;19995;-78
2022/12/15 01:42:29;;;;;;;26.60;18.55;;;8.10;90.70;;;;;;6338095;22;20447;-80
2022/12/15 01:45:24;;;;;;;27.63;18.83;;;8.10;90.70;;;;;;6338361;22;20006;-80
2022/12/15 01:47:52;;;;;;;25.17;17.08;;;8.10;90.70;;;;;;6338207;22;20428;-80
2022/12/15 01:50:18;;;;;;;29.10;19.33;;;;;;;;;;6338769;22;20074;-80
2022/12/15 01:52:46;;;;;;;27.67;19.02;;;8.10;90.50;;;;;;6338222;22;20003;-80
2022/12/15 01:55:12;;;;;;;29.05;18.55;;;8.20;90.70;;;;;;6310545;22;20421;-80
2022/12/15 01:57:38;;;;;;;25.88;17.27;;;8.20;90.60;;;;;;6338535;22;19999;-80
2022/12/15 02:00:07;;;;;;;25.33;17.10;;;8.20;90.60;;;;;;6310952;22;20297;-81
2022/12/15 02:02:35;;;;;;;28.90;18.45;;;8.20;90.60;;;;;;6338245;22;19995;-80
2022/12/15 02:05:03;;;;;;;28.65;17.90;;;8.20;90.60;;;;;;6338229;22;20013;-81
2022/12/15 02:07:29;;;;;;;28.75;18.15;;;8.10;90.40;;;;;;6337589;22;19998;-81
2022/12/15 02:09:58;;;;;;;26.33;18.20;;;8.20;90.60;;;;;;6338300;22;20006;-81
2022/12/15 02:12:26;;;;;;;24.83;17.95;;;8.20;90.50;;;;;;6337870;22;20011;-81
2022/12/15 02:15:22;;;;;;;27.38;17.67;;;8.20;90.50;;;;;;6338466;22;20006;-81
2022/12/15 02:18:11;;;;;;;28.75;18.23;;;8.20;90.30;;;;;;6337527;22;20003;-81
2022/12/15 02:21:01;;;;;;;26.98;18.63;;;8.20;90.50;;;;;;6337711;22;20010;-81
2022/12/15 02:23:45;;;;;;;;;;;8.20;90.40;;;;;;6338535;22;20002;-80
2022/12/15 02:26:11;;;;;;;24.33;16.30;;;8.10;90.40;;;;;;6338185;22;20301;-80
2022/12/15 02:28:41;;;;;;;34.28;18.27;;;8.10;90.70;;;;;;6337177;22;20006;-80
2022/12/15 02:34:10;;;;;;;26.83;18.45;;;8.10;90.70;;;;;;6338365;22;20013;-79
2022/12/15 02:36:40;;;;;;;25.15;17.15;;;8.20;90.80;;;;;;6338519;22;20026;-80
2022/12/15 02:39:06;;;;;;;30.55;20.55;;;8.20;90.70;;;;;;6338059;22;19998;-80
2022/12/15 02:41:43;;;;;;;26.30;18.52;;;8.10;90.80;;;;;;6337354;22;20075;-78
2022/12/15 02:44:17;;;;;;;29.55;18.58;;;8.10;90.80;;;;;;6336333;22;20010;-80
2022/12/15 02:46:45;;;;;;;31.80;19.30;;;8.10;90.80;;;;;;6310008;22;20030;-80
2022/12/15 02:49:14;;;;;;;25.52;17.92;;;8.00;90.70;;;;;;6337671;22;20038;-80
2022/12/15 02:51:59;;;;;;;25.35;17.33;;;8.00;90.70;;;;;;6337437;22;20041;-79
2022/12/15 02:54:43;;;;;;;29.70;19.15;;;8.00;90.80;;;;;;6337413;22;20006;-79
2022/12/15 02:57:53;;;;;;;27.00;18.10;;;8.00;91.10;;;;;;6338107;22;20318;-81
2022/12/15 03:00:19;;;;;;;30.38;18.10;;;8.00;91.10;;;;;;6212153;23;20454;-80
2022/12/15 03:02:51;;;;;;;30.63;19.38;;;8.00;91.20;;;;;;6212224;23;20039;-80
2022/12/15 03:05:19;;;;;;;31.27;20.38;;;8.00;91.20;;;;;;6282285;22;19998;-80
2022/12/15 03:07:44;;;;;;;27.17;18.25;;;8.00;91.20;;;;;;6338093;22;20471;-80
2022/12/15 03:10:12;;;;;;;28.20;17.05;;;8.00;91.00;;;;;;6338296;22;19999;-81
2022/12/15 03:12:39;;;;;;;31.27;18.60;;;8.00;91.20;;;;;;6338449;22;20007;-80
2022/12/15 03:15:05;;;;;;;32.78;18.65;;;7.90;91.10;;;;;;6338233;22;20006;-80
2022/12/15 03:17:31;;;;;;;30.73;18.25;;;7.90;91.30;;;;;;6338010;22;20004;-81
2022/12/15 03:19:56;;;;;;;31.48;20.02;;;7.90;91.30;;;;;;6338381;22;19995;-81
2022/12/15 03:22:22;;;;;;;28.45;19.17;;;7.90;91.40;;;;;;6338346;22;20023;-82
2022/12/15 03:24:48;;;;;;;28.67;17.75;;;7.90;91.60;;;;;;6338071;22;19999;-81
2022/12/15 03:27:13;;;;;;;27.83;18.88;;;7.90;91.10;;;;;;6337935;22;20473;-82
2022/12/15 03:29:39;;;;;;;24.45;17.05;;;7.90;91.40;;;;;;6337319;22;20006;-81
2022/12/15 03:32:05;;;;;;;28.98;18.27;;;7.90;91.20;;;;;;6338293;22;20577;-81
2022/12/15 03:34:31;;;;;;;26.10;18.45;;;8.00;91.40;;;;;;6337982;22;20006;-80
2022/12/15 03:36:57;;;;;;;26.88;18.85;;;7.90;91.40;;;;;;6338437;22;20430;-80
2022/12/15 03:39:22;;;;;;;27.23;17.38;;;7.90;91.50;;;;;;6337860;22;19999;-82
2022/12/15 03:41:48;;;;;;;27.13;18.80;;;7.90;91.50;;;;;;6338140;22;20363;-82
2022/12/15 03:44:14;;;;;;;26.13;18.15;;;7.90;91.50;;;;;;6337883;22;20476;-80
2022/12/15 03:46:39;;;;;;;30.05;19.25;;;7.90;91.30;;;;;;6338348;22;20452;-80
2022/12/15 03:49:05;;;;;;;25.42;17.38;;;7.90;91.50;;;;;;6337706;22;20034;-82
2022/12/15 03:51:31;;;;;;;27.73;17.83;;;7.90;91.40;;;;;;6338328;22;20006;-83
2022/12/15 03:53:57;;;;;;;30.13;19.30;;;7.90;91.50;;;;;;6337556;22;20007;-82
2022/12/15 03:56:23;;;;;;;28.15;19.10;;;7.90;91.50;;;;;;6338212;22;20064;-82
2022/12/15 03:58:49;;;;;;;24.20;17.85;;;7.90;91.50;;;;;;6337523;22;20421;-81
2022/12/15 04:01:25;;;;;;;30.60;18.77;;;8.00;91.50;;;;;;6340268;22;20005;-81
2022/12/15 04:03:50;;;;;;;27.65;17.92;;;8.00;91.40;;;;;;6339571;22;20059;-82
2022/12/15 04:06:17;;;;;;;25.13;18.33;;;8.00;91.30;;;;;;6339310;22;20427;-82
2022/12/15 04:08:43;;;;;;;27.65;18.70;;;8.00;91.30;;;;;;6339219;22;20003;-82
2022/12/15 04:11:10;;;;;;;27.25;18.77;;;8.00;91.40;;;;;;6340216;22;20476;-82
2022/12/15 04:13:35;;;;;;;28.85;19.13;;;8.00;91.30;;;;;;6312890;22;20011;-83
2022/12/15 04:16:02;;;;;;;27.55;18.60;;;8.00;91.20;;;;;;6339922;22;20375;-83
2022/12/15 04:18:28;;;;;;;27.38;18.73;;;8.00;91.30;;;;;;6338518;22;20074;-82
2022/12/15 04:20:54;;;;;;;28.50;18.40;;;7.90;91.30;;;;;;6339469;22;20420;-82
2022/12/15 04:23:21;;;;;;;29.13;19.95;;;7.90;91.20;;;;;;6339814;22;20309;-82
2022/12/15 05:31:53;;;;;;;21.40;14.73;;;7.80;89.50;;;;;;6338815;22;20353;-77
2022/12/15 05:34:20;;;;;;;22.65;14.57;;;7.80;89.60;;;;;;6339266;22;20006;-78
2022/12/15 05:36:46;;;;;;;23.13;15.18;;;7.80;89.50;;;;;;6339206;22;20056;-79
2022/12/15 05:39:12;;;;;;;23.27;14.63;;;7.90;89.60;;;;;;6311367;22;20006;-78
2022/12/15 05:41:37;;;;;;;23.10;15.20;;;7.90;89.40;;;;;;6338587;22;20298;-79
2022/12/15 05:44:03;;;;;;;22.80;16.05;;;8.00;89.40;;;;;;6338492;22;19999;-78
2022/12/15 05:46:29;;;;;;;22.23;15.13;;;8.00;89.20;;;;;;6336036;22;20033;-85
2022/12/15 05:48:55;;;;;;;22.83;16.10;;;8.00;89.20;;;;;;6338520;22;20302;-84
2022/12/15 05:51:21;;;;;;;22.13;15.93;;;8.00;89.30;;;;;;6338803;22;20425;-78
2022/12/15 05:53:47;;;;;;;24.73;16.65;;;8.00;89.50;;;;;;6339141;22;19998;-80
2022/12/15 05:56:13;;;;;;;27.77;17.25;;;8.00;90.10;;;;;;6310209;22;20007;-79
2022/12/15 05:58:40;;;;;;;24.02;15.90;;;8.00;89.90;;;;;;6338460;22;20002;-79
2022/12/15 06:01:12;;;;;;;25.73;16.60;;;8.00;89.90;;;;;;6338571;22;19994;-78
2022/12/15 06:03:38;;;;;;;24.55;15.50;;;8.10;90.10;;;;;;6339046;22;20089;-78
2022/12/15 06:06:06;;;;;;;28.67;16.88;;;8.10;90.10;;;;;;6338314;22;20002;-79
2022/12/15 06:08:33;;;;;;;22.48;16.52;;;8.00;90.20;;;;;;6343398;22;20554;-81
2022/12/15 06:10:59;;;;;;;26.88;17.75;;;8.00;90.30;;;;;;6337518;22;20010;-78
2022/12/15 06:13:27;;;;;;;20.77;15.68;;;7.90;90.20;;;;;;6336215;22;20039;-79
2022/12/15 06:16:02;;;;;;;24.23;16.08;;;7.90;90.20;;;;;;6336624;22;20006;-78
2022/12/15 06:18:32;;;;;;;23.48;15.10;;;7.80;90.20;;;;;;6336263;22;20003;-78
2022/12/15 06:21:25;;;;;;;19.88;14.43;;;7.80;90.20;;;;;;6338854;22;20074;-78
2022/12/15 06:23:51;;;;;;;22.88;15.02;;;7.80;90.20;;;;;;6356732;22;19979;-77
2022/12/15 06:26:21;;;;;;;29.13;18.98;;;7.70;90.20;;;;;;6362070;22;20403;-77
2022/12/15 06:28:49;;;;;;;25.25;16.88;;;7.60;90.40;;;;;;6362662;22;20030;-79
2022/12/15 06:31:17;;;;;;;25.20;17.48;;;7.60;90.60;;;;;;6352488;22;20075;-78
2022/12/15 06:33:43;;;;;;;21.40;14.40;;;7.60;90.70;;;;;;6337262;22;20416;-77
2022/12/15 06:36:12;;;;;;;24.50;16.67;;;7.50;90.90;;;;;;6338257;22;19999;-76
2022/12/15 06:38:38;;;;;;;23.40;16.25;;;7.50;90.80;;;;;;6338108;22;20023;-76
2022/12/15 06:41:06;;;;;;;26.15;17.08;;;7.50;91.00;;;;;;6338073;22;20379;-79
2022/12/15 06:43:32;;;;;;;22.02;14.27;;;7.50;91.30;;;;;;6338069;22;20003;-81
2022/12/15 06:46:01;;;;;;;20.95;15.05;;;7.40;91.20;;;;;;6338168;22;20030;-81
2022/12/15 06:48:27;;;;;;;21.55;15.00;;;7.40;91.30;;;;;;6337686;22;20003;-81
2022/12/15 06:50:53;;;;;;;19.60;13.18;;;7.40;91.20;;;;;;6338310;22;20099;-81
2022/12/15 06:53:21;;;;;;;18.73;13.40;;;7.40;91.00;;;;;;6337912;22;20010;-78
2022/12/15 06:55:47;;;;;;;18.10;12.80;;;7.40;90.90;;;;;;6337677;22;20436;-83
2022/12/15 06:58:14;;;;;;;22.50;13.32;;;7.40;90.90;;;;;;6337911;22;20073;-83
2022/12/15 07:00:41;;;;;;;20.55;12.80;;;7.40;90.80;;;;;;6338404;22;20070;-83
2022/12/15 07:03:15;;;;;;;20.98;13.63;;;7.50;90.70;;;;;;6337890;22;19999;-81
2022/12/15 07:05:42;;;;;;;19.55;12.85;;;7.50;90.50;;;;;;6337955;22;20382;-79
2022/12/15 07:08:13;;;;;;;18.08;11.63;;;7.40;90.30;;;;;;6338040;22;20042;-79
2022/12/15 07:10:40;;;;;;;18.67;12.32;;;7.40;90.30;;;;;;6337566;22;20097;-79
2022/12/15 07:13:10;;;;;;;23.33;13.60;;;7.40;90.30;;;;;;6338649;22;20010;-80
2022/12/15 07:15:36;;;;;;;19.23;12.95;;;7.40;90.10;;;;;;6333210;22;20009;-81
2022/12/15 07:18:02;;;;;;;21.42;14.18;;;7.30;90.20;;;;;;6296371;22;20510;-80
2022/12/15 07:20:29;;;;;;;16.90;12.38;;;7.30;90.20;;;;;;6336046;22;20002;-81
2022/12/15 07:22:54;;;;;;;21.83;13.85;;;7.20;90.30;;;;;;6337478;22;20029;-80
2022/12/15 07:25:21;;;;;;;21.10;12.80;;;;;;;;;;6334983;22;20444;-80
2022/12/15 07:27:46;;;;;;;20.40;14.50;;;7.20;89.80;;;;;;6337382;22;20002;-80
2022/12/15 07:30:13;;;;;;;20.73;13.65;;;7.20;89.80;;;;;;6337039;22;20376;-80
2022/12/15 07:32:40;;;;;;;19.90;12.27;;;7.10;89.40;;;;;;6338339;22;20000;-81
2022/12/15 07:35:07;;;;;;;21.88;14.70;;;7.00;89.80;;;;;;6339116;22;20316;-80
2022/12/15 07:37:33;;;;;;;22.85;14.38;;;7.00;89.70;;;;;;6339731;22;20073;-80
2022/12/15 07:39:59;;;;;;;19.95;12.23;;;7.00;90.00;;;;;;6339496;22;20074;-80
2022/12/15 07:42:28;;;;;;;19.73;13.27;;;7.00;89.80;;;;;;6339755;22;20342;-80
2022/12/15 07:44:54;;;;;;;19.85;12.65;;;7.00;90.10;;;;;;6340270;22;19995;-81
2022/12/15 07:47:19;;;;;;;21.00;13.38;;;7.00;90.10;;;;;;6338989;22;20341;-80
2022/12/15 07:49:45;;;;;;;21.42;13.10;;;7.00;90.10;;;;;;6344122;22;20316;-81
2022/12/15 07:52:12;;;;;;;22.95;14.57;;;6.90;90.20;;;;;;6340966;22;20009;-82
2022/12/15 07:54:39;;;;;;;22.02;14.73;;;6.80;90.20;;;;;;6340140;22;19998;-81
2022/12/15 07:57:06;;;;;;;25.10;14.10;;;6.80;90.40;;;;;;6311879;22;19998;-81
2022/12/15 07:59:33;;;;;;;21.38;12.77;;;6.90;90.40;;;;;;6339811;22;20328;-81
2022/12/15 08:01:59;;;;;;;18.83;13.23;;;6.90;90.40;;;;;;6342549;22;20484;-81
2022/12/15 08:04:25;;;;;;;22.08;13.40;;;7.00;90.30;;;;;;6339408;22;20294;-81
2022/12/15 08:06:53;;;;;;;22.52;13.73;;;7.00;90.20;;;;;;6339146;22;20053;-81
2022/12/15 08:09:19;;;;;;;20.48;13.02;;;7.00;90.20;;;;;;6343516;22;20309;-80
2022/12/15 08:11:44;;;;;;;20.70;12.63;;;7.20;90.40;;;;;;6339746;22;20022;-80
2022/12/15 08:14:10;;;;;;;19.92;12.75;;;7.10;90.00;;;;;;6340088;22;20013;-81
2022/12/15 08:16:36;;;;;;;18.92;12.50;;;7.20;90.10;;;;;;6338544;22;19995;-80
2022/12/15 08:19:04;;;;;;;18.83;12.25;;;7.30;90.10;;;;;;6339485;22;20002;-80
2022/12/15 08:21:31;;;;;;;18.65;13.65;;;7.40;90.10;;;;;;6339886;22;20081;-81
2022/12/15 08:23:57;;;;;;;17.70;12.02;;;7.50;89.50;;;;;;6337378;22;20031;-79
2022/12/15 08:26:23;;;;;;;21.15;13.68;;;7.50;89.50;;;;;;6339816;22;20006;-79
2022/12/15 08:28:49;;;;;;;23.77;13.63;;;7.50;89.60;;;;;;6339783;22;20003;-80
2022/12/15 08:31:18;;;;;;;21.42;12.73;;;7.50;89.10;;;;;;6339303;22;20026;-81
2022/12/15 08:33:44;;;;;;;20.10;13.38;;;7.50;89.10;;;;;;6338236;22;20051;-81
2022/12/15 08:36:13;;;;;;;22.02;14.70;;;7.50;89.00;;;;;;6338574;22;20003;-80
2022/12/15 08:38:40;;;;;;;26.98;17.92;;;7.60;89.40;;;;;;6339114;22;19995;-81
2022/12/15 08:41:12;;;;;;;25.65;16.38;;;7.50;88.70;;;;;;6338275;22;20418;-80
2022/12/15 08:43:38;;;;;;;27.02;16.65;;;7.50;89.30;;;;;;6339900;22;20144;-81
2022/12/15 08:46:05;;;;;;;23.23;15.52;;;7.60;89.40;;;;;;6339131;22;20025;-81
2022/12/15 08:48:31;;;;;;;22.33;14.80;;;7.60;89.20;;;;;;6339530;22;20463;-81
2022/12/15 08:50:58;;;;;;;24.65;15.15;;;7.50;88.60;;;;;;6340506;22;19999;-81
2022/12/15 08:53:25;;;;;;;23.63;15.80;;;7.50;89.00;;;;;;6312575;22;20060;-82
2022/12/15 08:55:51;;;;;;;22.48;14.48;;;7.50;89.00;;;;;;6339925;22;20006;-80
2022/12/15 08:58:17;;;;;;;21.33;13.55;;;7.60;88.90;;;;;;6338977;22;20313;-78
2022/12/15 09:00:42;;;;;;;24.95;16.17;;;7.60;89.30;;;;;;6339378;22;20003;-78
2022/12/15 09:03:08;;;;;;;22.92;15.23;;;7.70;89.10;;;;;;6311458;22;20128;-79
2022/12/15 09:05:35;;;;;;;26.35;15.45;;;7.90;88.20;;;;;;6312091;22;20009;-79
2022/12/15 09:08:01;;;;;;;21.23;13.95;;;7.90;88.60;;;;;;6339280;22;20007;-79
2022/12/15 09:10:27;;;;;;;22.15;14.82;;;7.90;87.90;;;;;;6338929;22;20040;-78
2022/12/15 09:12:53;;;;;;;24.60;15.65;;;8.00;88.50;;;;;;6339475;22;20013;-78
2022/12/15 09:15:18;;;;;;;23.55;16.10;;;8.10;88.30;;;;;;6339817;22;20006;-78
2022/12/15 09:17:45;;;;;;;23.88;15.75;;;8.20;88.20;;;;;;6312179;22;19999;-79
2022/12/15 09:20:11;;;;;;;22.17;15.30;;;8.30;87.30;;;;;;6339483;22;20023;-79
2022/12/15 09:22:37;;;;;;;23.23;15.32;;;8.30;87.30;;;;;;6339393;22;20040;-79
2022/12/15 09:25:04;;;;;;;24.00;15.05;;;8.40;87.40;;;;;;6338292;22;20014;-79
2022/12/15 09:27:30;;;;;;;25.42;16.33;;;8.40;86.90;;;;;;6339164;22;20002;-78
2022/12/15 09:29:56;;;;;;;28.45;15.55;;;;;;;;;;6339980;22;20025;-80
2022/12/15 09:32:22;;;;;;;25.92;16.20;;;8.50;86.50;;;;;;6339144;22;20002;-80
2022/12/15 09:34:50;;;;;;;20.85;14.95;;;8.50;86.80;;;;;;6311415;22;20010;-81
2022/12/15 09:37:16;;;;;;;26.25;15.50;;;8.50;86.40;;;;;;6337915;22;19999;-82
2022/12/15 09:39:43;;;;;;;24.60;15.05;;;8.40;86.00;;;;;;6310882;22;20080;-79
2022/12/15 09:42:28;;;;;;;23.80;15.65;;;8.40;86.60;;;;;;6339120;22;20022;-81
2022/12/15 09:45:20;;;;;;;22.45;14.98;;;8.50;86.00;;;;;;6339327;22;19998;-79
2022/12/15 09:47:50;;;;;;;21.13;14.30;;;8.50;86.30;;;;;;6338036;22;20010;-80
2022/12/15 09:50:25;;;;;;;24.27;14.32;;;8.50;86.20;;;;;;6312044;22;20380;-81
2022/12/15 09:52:58;;;;;;;20.70;13.20;;;8.50;86.10;;;;;;6311972;22;20440;-78
2022/12/15 09:55:31;;;;;;;20.17;13.85;;;8.50;85.40;;;;;;6339433;22;20003;-81
2022/12/15 09:57:57;;;;;;;21.38;13.68;;;;;;;;;;6311144;22;20003;-80
2022/12/15 10:00:49;;;;;;;24.20;14.85;;;8.60;84.70;;;;;;6335234;22;20006;-79
2022/12/15 10:03:38;;;;;;;19.60;13.85;;;8.60;84.00;;;;;;6337790;22;20010;-79
2022/12/15 10:06:17;;;;;;;21.38;13.05;;;8.60;84.10;;;;;;6338717;22;20003;-80
2022/12/15 10:08:47;;;;;;;21.90;12.75;;;8.60;84.50;;;;;;6311293;22;20452;-80
2022/12/15 10:11:27;;;;;;;19.40;12.93;;;8.60;84.60;;;;;;6339101;22;20018;-79
2022/12/15 10:14:11;;;;;;;21.93;12.80;;;8.70;84.70;;;;;;6338771;22;20069;-81
2022/12/15 10:17:00;;;;;;;22.98;12.95;;;8.70;84.70;;;;;;6338641;22;20072;-80
2022/12/15 10:19:40;;;;;;;23.45;12.57;;;8.80;84.60;;;;;;6338132;22;20002;-78
2022/12/15 10:22:20;;;;;;;16.35;11.77;;;8.80;83.30;;;;;;6310567;22;20030;-80
2022/12/15 10:24:46;;;;;;;22.38;13.75;;;8.80;83.90;;;;;;6337992;22;20006;-80
2022/12/15 10:27:12;;;;;;;24.60;14.27;;;8.80;82.90;;;;;;6337678;22;20077;-79
2022/12/15 10:29:52;;;;;;;19.42;13.25;;;8.80;83.40;;;;;;6337110;22;20033;-80
2022/12/15 10:32:43;;;;;;;18.10;12.48;;;8.70;83.70;;;;;;6337890;22;20010;-80
2022/12/15 10:35:20;;;;;;;26.73;14.40;;;8.80;83.90;;;;;;6331813;22;20006;-80
2022/12/15 10:37:46;;;;;;;18.48;12.98;;;8.80;83.40;;;;;;6338018;22;20001;-80
2022/12/15 10:40:39;;;;;;;25.58;15.15;;;8.80;83.60;;;;;;6338037;22;19999;-80
2022/12/15 10:43:33;;;;;;;21.88;14.50;;;8.80;83.20;;;;;;6326700;22;20013;-79
2022/12/15 10:46:24;;;;;;;26.02;13.95;;;8.70;83.40;;;;;;6336395;22;20432;-80
2022/12/15 10:48:54;;;;;;;20.92;13.52;;;8.70;83.80;;;;;;6337616;22;20007;-80
2022/12/15 10:51:20;;;;;;;;;;;8.70;84.00;;;;;;6339156;22;20291;-81
2022/12/15 10:54:09;;;;;;;19.13;13.25;;;8.70;84.10;;;;;;6338319;22;19965;-79
2022/12/15 10:56:50;;;;;;;22.13;12.98;;;8.80;84.00;;;;;;6318520;22;20002;-80
2022/12/15 10:59:22;;;;;;;20.58;12.40;;;8.80;83.30;;;;;;6338399;22;20417;-80
2022/12/15 11:01:49;;;;;;;18.40;12.45;;;8.70;83.60;;;;;;6309460;22;20003;-81
2022/12/15 11:04:28;;;;;;;20.73;12.52;;;8.80;83.60;;;;;;6309774;22;19999;-81
2022/12/15 11:06:59;;;;;;;21.45;12.60;;;8.70;83.40;;;;;;6309236;22;20076;-81
2022/12/15 11:09:32;;;;;;;18.67;11.40;;;8.70;83.10;;;;;;6337422;22;20073;-80
2022/12/15 11:14:48;;;;;;;16.45;11.57;;;8.70;83.50;;;;;;6338257;22;20065;-80
2022/12/15 11:17:22;;;;;;;17.42;11.77;;;8.70;83.70;;;;;;6338163;22;20022;-80
2022/12/15 11:19:54;;;;;;;15.23;11.02;;;8.60;82.60;;;;;;6338007;22;20006;-80
2022/12/15 11:22:41;;;;;;;13.70;9.48;;;8.60;82.70;;;;;;6336351;22;20003;-79
2022/12/15 11:25:23;;;;;;;14.93;10.05;;;8.50;82.70;;;;;;6336199;22;19999;-79
2022/12/15 11:27:54;;;;;;;13.55;9.25;;;8.50;83.60;;;;;;6336061;22;20493;-80
2022/12/15 11:30:31;;;;;;;13.55;9.82;;;8.40;83.90;;;;;;6309117;22;20007;-80
2022/12/15 11:32:59;;;;;;;12.27;8.88;;;8.40;84.30;;;;;;6335939;22;20010;-78
2022/12/15 11:35:45;;;;;;;13.52;8.82;;;8.40;84.80;;;;;;6338017;22;20006;-78
2022/12/15 11:38:41;;;;;;;16.02;9.25;;;8.40;85.30;;;;;;6320353;22;20007;-79
2022/12/15 11:41:44;;;;;;;16.02;9.55;;;8.30;86.20;;;;;;6335190;22;20010;-78
2022/12/15 11:44:28;;;;;;;14.15;8.43;;;8.30;86.80;;;;;;6338071;22;20358;-78
2022/12/15 11:47:43;;;;;;;13.38;9.20;;;8.20;87.40;;;;;;6337725;22;19999;-79
2022/12/15 11:50:50;;;;;;;13.00;8.43;;;8.10;87.70;;;;;;6330708;22;20082;-78
2022/12/15 11:53:46;;;;;;;14.45;8.13;;;8.10;88.00;;;;;;6333924;22;20112;-78
2022/12/15 11:56:14;;;;;;;11.00;7.68;;;8.10;88.40;;;;;;6337547;22;20130;-79
2022/12/15 11:59:24;;;;;;;12.10;7.70;;;8.00;88.20;;;;;;6309646;22;20417;-80
2022/12/15 12:01:57;;;;;;;8.90;6.68;;;8.00;88.90;;;;;;6302645;22;20007;-79
2022/12/15 12:04:36;;;;;;;12.65;7.18;;;7.90;88.10;;;;;;6333123;22;20003;-78
2022/12/15 12:07:12;;;;;;;11.88;7.10;;;7.90;88.20;;;;;;6336701;22;20019;-78
2022/12/15 12:09:56;;;;;;;9.30;6.53;;;8.00;88.90;;;;;;6337129;22;19995;-83
2022/12/15 12:13:10;;;;;;;8.68;6.45;;;8.00;88.90;;;;;;6309536;22;20026;-81
2022/12/15 12:16:08;;;;;;;10.85;6.90;;;8.10;88.40;;;;;;6302557;22;20042;-81
2022/12/15 12:19:11;;;;;;;13.18;6.47;;;8.10;88.80;;;;;;6276976;22;20007;-81
2022/12/15 12:21:44;;;;;;;7.45;5.53;;;8.20;88.50;;;;;;6300607;22;20002;-81
2022/12/15 12:24:16;;;;;;;8.65;5.82;;;8.20;88.60;;;;;;6338499;22;20010;-81
2022/12/15 12:26:57;;;;;;;9.00;6.20;;;8.20;88.30;;;;;;6338409;22;20006;-81
2022/12/15 12:29:36;;;;;;;10.50;7.60;;;8.20;87.70;;;;;;6338537;22;20070;-81
2022/12/15 12:32:14;;;;;;;13.60;9.20;;;8.10;86.60;;;;;;6338774;22;19999;-82
2022/12/15 12:35:08;;;;;;;13.27;7.25;;;8.00;87.20;;;;;;6338164;22;19999;-81
2022/12/15 12:37:42;;;;;;;11.27;7.00;;;8.00;88.20;;;;;;6338959;22;20006;-81
2022/12/15 12:40:44;;;;;;;10.30;6.70;;;8.00;88.10;;;;;;6339996;22;20002;-79
2022/12/15 12:43:19;;;;;;;11.23;7.07;;;8.00;88.30;;;;;;6338847;22;20002;-78
2022/12/15 12:45:54;;;;;;;12.18;7.82;;;8.00;88.50;;;;;;6310940;22;20310;-82
2022/12/15 12:48:40;;;;;;;9.85;6.93;;;7.90;88.90;;;;;;6338999;22;20003;-81
2022/12/15 12:51:32;;;;;;;11.60;7.32;;;7.90;88.40;;;;;;6310484;22;20011;-81
2022/12/15 12:54:00;;;;;;;9.38;6.70;;;7.90;88.50;;;;;;6310366;22;20079;-80
2022/12/15 12:56:41;;;;;;;10.82;7.00;;;7.90;88.50;;;;;;6309869;22;20010;-80
2022/12/15 12:59:29;;;;;;;9.88;6.63;;;7.90;88.60;;;;;;6339336;22;19999;-82
2022/12/15 13:01:56;;;;;;;9.93;6.18;;;8.00;88.60;;;;;;6337409;22;20022;-79
2022/12/15 13:04:28;;;;;;;9.10;6.10;;;;;;;;;;6330456;22;20013;-80
2022/12/15 13:06:54;;;;;;;9.07;6.13;;;8.00;88.10;;;;;;6336211;22;20074;-77
2022/12/15 13:09:22;;;;;;;9.63;6.35;;;8.00;88.30;;;;;;6335898;22;20056;-79
2022/12/15 13:11:48;;;;;;;9.02;6.00;;;8.10;87.40;;;;;;6337039;22;20011;-80
2022/12/15 13:14:43;;;;;;;7.30;5.65;;;8.10;87.80;;;;;;6336872;22;20076;-80
2022/12/15 13:17:24;;;;;;;9.20;5.90;;;8.20;87.60;;;;;;6307809;22;20013;-80
2022/12/15 13:19:59;;;;;;;9.63;5.70;;;8.20;87.50;;;;;;6337067;22;20488;-81
2022/12/15 13:22:32;;;;;;;8.93;6.20;;;8.20;87.70;;;;;;6308978;22;20037;-81
2022/12/15 13:24:59;;;;;;;9.93;6.05;;;8.20;87.10;;;;;;6336441;22;20056;-81
2022/12/15 13:27:35;;;;;;;8.68;6.10;;;8.10;86.60;;;;;;6337696;22;20010;-81
2022/12/15 13:30:03;;;;;;;9.13;6.30;;;8.10;86.70;;;;;;6337808;22;20025;-81
2022/12/15 13:32:37;;;;;;;9.20;6.20;;;8.10;86.70;;;;;;6336478;22;20007;-81
2022/12/15 13:35:12;;;;;;;8.52;5.90;;;8.20;86.40;;;;;;6310198;22;20010;-80
2022/12/15 13:38:01;;;;;;;9.10;5.97;;;8.10;86.30;;;;;;6338754;22;20316;-79
2022/12/15 13:40:33;;;;;;;11.30;7.10;;;8.20;87.00;;;;;;6310039;22;20003;-79
2022/12/15 13:43:05;;;;;;;12.68;7.72;;;8.20;87.00;;;;;;6337636;22;20006;-80
2022/12/15 13:45:35;;;;;;;13.57;8.50;;;8.20;87.00;;;;;;6336325;22;20433;-80
2022/12/15 13:48:31;;;;;;;11.52;6.72;;;8.20;86.30;;;;;;6338324;22;19999;-83
2022/12/15 13:51:21;;;;;;;9.45;6.70;;;8.20;86.70;;;;;;6324763;22;20376;-81
2022/12/15 13:54:16;;;;;;;11.40;7.03;;;8.20;86.90;;;;;;6337663;22;20033;-82
2022/12/15 13:56:49;;;;;;;8.40;6.18;;;8.20;86.90;;;;;;6338612;22;20002;-79
2022/12/15 13:59:35;;;;;;;12.07;6.82;;;8.30;86.60;;;;;;6310499;22;20029;-80
2022/12/15 14:02:01;;;;;;;10.32;6.40;;;8.30;86.90;;;;;;6335789;22;20465;-83
2022/12/15 14:04:27;;;;;;;10.95;6.10;;;8.20;86.80;;;;;;6338036;22;20018;-82
2022/12/15 14:06:59;;;;;;;12.32;7.28;;;8.30;87.80;;;;;;6339354;22;20020;-81
2022/12/15 14:09:38;;;;;;;9.48;6.05;;;8.20;87.80;;;;;;6339659;22;20022;-85
2022/12/15 14:12:12;;;;;;;7.70;5.75;;;8.10;88.40;;;;;;6338980;22;20025;-84
2022/12/15 14:14:45;;;;;;;14.05;7.18;;;8.20;88.70;;;;;;6337894;22;19998;-86
2022/12/15 14:17:15;;;;;;;7.25;5.47;;;8.20;88.70;;;;;;6338916;22;19995;-81
2022/12/15 14:19:46;;;;;;;9.57;6.00;;;8.10;89.10;;;;;;6338875;22;20411;-81
2022/12/15 14:22:24;;;;;;;8.50;5.45;;;8.10;89.10;;;;;;6338604;22;19998;-80
2022/12/15 14:24:51;;;;;;;10.13;5.65;;;8.10;89.40;;;;;;6338211;22;20022;-80
2022/12/15 14:27:29;;;;;;;8.27;5.60;;;8.20;89.50;;;;;;6338551;22;20009;-80
2022/12/15 14:30:13;;;;;;;11.40;6.40;;;8.20;89.50;;;;;;6339071;22;20013;-80
2022/12/15 14:32:42;;;;;;;7.45;5.40;;;8.20;89.60;;;;;;6338884;22;20022;-82
2022/12/15 14:35:43;;;;;;;7.22;4.75;;;8.20;90.00;;;;;;6338874;22;20022;-82
2022/12/15 14:38:21;;;;;;;8.02;5.80;;;;;;;;;;6339446;22;20006;-83
2022/12/15 14:40:50;;;;;;;9.80;5.60;;;8.30;90.40;;;;;;6311377;22;20009;-82
2022/12/15 14:43:28;;;;;;;6.97;5.72;;;8.20;90.60;;;;;;6338871;22;19999;-86
2022/12/15 14:46:15;;;;;;;7.43;5.72;;;8.20;90.90;;;;;;6338612;22;20417;-81
2022/12/15 14:48:59;;;;;;;8.38;5.25;;;8.20;90.90;;;;;;6339217;22;20368;-81
2022/12/15 14:51:27;;;;;;;8.35;5.90;;;8.20;90.90;;;;;;6339330;22;20334;-84
2022/12/15 14:53:54;;;;;;;9.93;6.88;;;8.20;91.20;;;;;;6338429;22;19999;-84
2022/12/15 14:56:19;;;;;;;9.18;5.88;;;8.20;91.40;;;;;;6339466;22;20002;-84
2022/12/15 14:59:02;;;;;;;9.00;6.28;;;8.20;91.20;;;;;;6339741;22;20045;-83
2022/12/15 15:01:41;;;;;;;8.80;5.65;;;8.20;91.60;;;;;;6338958;22;20056;-84
2022/12/15 15:04:40;;;;;;;8.63;6.05;;;8.20;91.80;;;;;;6338824;22;19999;-82
2022/12/15 15:07:15;;;;;;;9.73;6.43;;;8.20;92.20;;;;;;6319551;22;20006;-82
2022/12/15 15:09:43;;;;;;;9.70;6.30;;;8.10;92.50;;;;;;6334503;22;20293;-81
2022/12/15 15:12:20;;;;;;;8.45;6.15;;;8.10;92.10;;;;;;6338026;22;20014;-82
2022/12/15 15:14:58;;;;;;;7.35;5.80;;;8.10;92.40;;;;;;6337270;22;20329;-82
2022/12/15 15:17:32;;;;;;;8.05;5.53;;;8.10;92.30;;;;;;6337588;22;19994;-82
2022/12/15 15:20:04;;;;;;;8.40;5.60;;;8.20;92.60;;;;;;6337728;22;19991;-82
2022/12/15 15:22:47;;;;;;;6.95;5.55;;;8.20;92.70;;;;;;6339219;22;20070;-82
2022/12/15 15:25:27;;;;;;;6.40;4.90;;;8.20;92.90;;;;;;6336297;22;20333;-81
2022/12/15 15:28:01;;;;;;;6.15;4.43;;;8.20;93.00;;;;;;6337782;22;20006;-79
2022/12/15 15:30:27;;;;;;;6.20;4.85;;;8.20;93.10;;;;;;6337895;22;20009;-80
2022/12/15 15:32:58;;;;;;;9.35;5.07;;;8.20;93.10;;;;;;6338017;22;20388;-79
2022/12/15 15:35:29;;;;;;;;;;;8.20;93.30;;;;;;6338161;22;20003;-79
2022/12/15 15:38:04;;;;;;;9.38;5.90;;;8.20;93.40;;;;;;6332473;22;19926;-79